Chance, Maryland
Current Conditions -  °F | °C
As of 12:54 AM on Sunday 26 Oct 2014 (Local Time) from KSBY Reporting Station
Clear Clear  
Wind Chill: 58°   Ceiling: Unl
Heat Index: 58°   Visibility: 10mi
Dew Point: 48°   Wind: 7mph
Humidity: 70%   Direction: 250°WSW
Pressure: 29.7"   Gusts: NA
Location:  38.17°N, 75.94°W
Report Text: KSBY 260454Z AUTO 25006KT 10SM CLR 14/09 A2970 RMK AO2 SLP060 T01440089 402170056
Loading
Personal Weather Stations






























Interactive Weather Map
Tropical Storm Tracking
New forecast layout! Learn more

10-Day Weather Forecast

Advertisements
Track Severe Weather on mobile